createdAt,value
2018-03-04T00:03:50.415Z,216.70
2018-03-04T00:13:52.227Z,192.87
2018-03-04T00:23:53.769Z,228.57
2018-03-04T00:33:55.311Z,222.03
2018-03-04T00:43:56.841Z,218.17
2018-03-04T00:53:59.104Z,211.10
2018-03-04T01:04:00.806Z,206.70
2018-03-04T01:14:02.373Z,212.60
2018-03-04T01:24:04.705Z,218.13
2018-03-04T01:34:06.276Z,221.77
2018-03-04T01:44:07.857Z,207.43
2018-03-04T01:54:09.357Z,194.97
2018-03-04T02:04:10.909Z,205.47
2018-03-04T02:14:12.423Z,209.60
2018-03-04T02:24:13.977Z,220.03
2018-03-04T02:34:15.508Z,218.57
2018-03-04T02:44:17.038Z,192.30
2018-03-04T02:54:18.592Z,200.07
2018-03-04T03:04:20.932Z,214.50
2018-03-04T03:14:22.497Z,229.23
2018-03-04T03:24:24.805Z,199.63
2018-03-04T03:34:26.336Z,191.40
2018-03-04T03:44:27.863Z,211.50
2018-03-04T03:54:29.447Z,202.87
2018-03-04T04:04:30.970Z,199.37
2018-03-04T04:14:32.501Z,232.57
2018-03-04T04:24:34.014Z,228.57
2018-03-04T04:34:35.509Z,239.63
2018-03-04T04:44:37.200Z,218.07
2018-03-04T04:54:38.759Z,224.33
2018-03-04T05:04:40.277Z,228.07
2018-03-04T05:14:41.812Z,222.10
2018-03-04T05:24:44.136Z,213.40
2018-03-04T05:34:46.483Z,197.63
2018-03-04T05:44:48.022Z,237.23
2018-03-04T05:54:49.601Z,230.37
2018-03-04T06:04:51.980Z,200.67
2018-03-04T06:14:54.238Z,231.87
2018-03-04T06:24:55.738Z,218.20
2018-03-04T06:34:57.274Z,221.33
2018-03-04T06:44:58.791Z,212.50
2018-03-04T06:55:00.341Z,236.80
2018-03-04T07:05:01.916Z,229.63
2018-03-04T07:15:03.479Z,240.13
2018-03-04T07:25:05.753Z,264.90
2018-03-04T07:35:07.649Z,264.50
2018-03-04T07:45:09.163Z,235.97
2018-03-04T07:55:10.877Z,246.40
2018-03-04T08:05:12.433Z,244.13
2018-03-04T08:15:14.010Z,259.10
2018-03-04T08:25:31.626Z,238.27
2018-03-04T08:35:33.108Z,228.10
2018-03-04T08:45:34.723Z,231.90
2018-03-04T08:55:36.332Z,240.03
2018-03-04T09:05:37.877Z,217.20
2018-03-04T09:15:39.405Z,278.43
2018-03-04T09:25:41.147Z,233.97
2018-03-04T09:35:42.717Z,228.47
2018-03-04T09:45:44.317Z,235.60
2018-03-04T09:55:45.926Z,217.83
2018-03-04T10:05:47.580Z,235.67
2018-03-04T10:15:49.102Z,218.20
2018-03-04T10:25:51.364Z,219.70
2018-03-04T10:35:52.912Z,192.13
2018-03-04T10:45:55.221Z,229.50
2018-03-04T10:55:56.750Z,225.03
2018-03-04T11:05:58.326Z,220.80
2018-03-04T11:16:00.801Z,232.93
2018-03-04T11:26:02.378Z,211.67
2018-03-04T11:36:03.970Z,202.57
2018-03-04T11:46:05.705Z,205.97
2018-03-04T11:56:07.225Z,202.03
2018-03-04T12:06:08.725Z,189.13
2018-03-04T12:16:10.272Z,168.17
2018-03-04T12:26:11.912Z,177.73
2018-03-04T12:36:13.476Z,163.53
2018-03-04T12:46:14.955Z,191.07
2018-03-04T12:56:17.430Z,156.10
2018-03-04T13:06:18.961Z,169.73
2018-03-04T13:16:20.542Z,148.33
2018-03-04T13:26:22.086Z,149.37
2018-03-04T13:36:23.754Z,138.83
2018-03-04T13:46:25.395Z,146.17
2018-03-04T13:56:27.109Z,126.50
2018-03-04T14:06:28.661Z,128.10
2018-03-04T14:16:30.825Z,115.93
2018-03-04T14:26:33.080Z,111.57
2018-03-04T14:36:34.669Z,106.77
2018-03-04T14:46:36.251Z,104.10
2018-03-04T14:56:37.740Z,103.60
2018-03-04T15:06:39.315Z,94.97
2018-03-04T15:16:41.578Z,95.00
2018-03-04T15:26:43.097Z,93.27
2018-03-04T15:36:44.663Z,109.63
2018-03-04T15:46:46.246Z,92.37
2018-03-04T15:56:47.919Z,84.57
2018-03-04T16:06:50.091Z,76.03
2018-03-04T16:16:51.565Z,71.90
2018-03-04T16:26:53.227Z,80.67
2018-03-04T16:36:54.887Z,65.97
2018-03-04T16:46:56.373Z,65.00
2018-03-04T16:56:57.970Z,72.13
2018-03-04T17:06:59.532Z,78.97
2018-03-04T17:17:01.054Z,80.67
2018-03-04T17:27:03.358Z,86.43
2018-03-04T17:37:04.943Z,106.73
2018-03-04T17:47:06.786Z,114.10
2018-03-04T17:57:09.143Z,107.90
2018-03-04T18:07:10.782Z,114.93
2018-03-04T18:17:12.270Z,119.00
2018-03-04T18:27:13.845Z,123.43
2018-03-04T18:37:15.326Z,138.33
2018-03-04T18:47:16.938Z,102.53
2018-03-04T18:57:18.506Z,110.03
2018-03-04T19:07:20.298Z,119.90
2018-03-04T19:17:22.610Z,107.53
2018-03-04T19:27:24.179Z,115.43
2018-03-04T19:37:25.759Z,90.20
2018-03-04T19:47:27.410Z,83.17
2018-03-04T19:57:28.897Z,92.47
2018-03-04T20:07:30.421Z,95.90
2018-03-04T20:17:31.876Z,87.27
2018-03-04T20:27:33.453Z,78.60
2018-03-04T20:37:35.006Z,74.30
2018-03-04T20:47:36.577Z,64.53
2018-03-04T20:57:38.125Z,68.27
2018-03-04T21:07:40.406Z,67.97
2018-03-04T21:17:42.017Z,68.03
2018-03-04T21:27:43.703Z,64.47
2018-03-04T21:37:45.215Z,59.13
2018-03-04T21:47:46.790Z,65.73
2018-03-04T21:57:48.252Z,68.60
2018-03-04T22:07:49.808Z,62.73
2018-03-04T22:17:51.495Z,66.13
2018-03-04T22:27:53.112Z,75.70
2018-03-04T22:37:54.663Z,50.50
2018-03-04T22:47:56.241Z,70.40
2018-03-04T22:57:58.641Z,53.83
2018-03-04T23:08:00.174Z,60.57
2018-03-04T23:18:01.747Z,88.37
2018-03-04T23:28:03.272Z,84.77
2018-03-04T23:38:05.609Z,95.07
2018-03-04T23:48:07.178Z,119.17
2018-03-04T23:58:09.468Z,83.10
